Time;durP1;ratioP1;P1;durP2;ratioP2;P2;SDS_P1;SDS_P2;PMS_P1;PMS_P2;Temp;Humidity;BMP_temperature;BMP_pressure;BME280_temperature;BME280_humidity;BME280_pressure;Samples;Min_cycle;Max_cycle;Signal;HPM_P1;HPM_P2
2023/05/05 00:00:05;;;;;;;;;;;;;;;11.62;51.40;99459.41;135625;1280;24249;-65
2023/05/05 00:03:31;;;;;;;;;;;;;;;11.67;51.37;99455.48;131323;1280;5370277;-65
2023/05/05 00:06:34;;;;;;;;;;;;;;;11.67;51.33;99450.58;135352;1280;22498;-68
2023/05/05 00:09:38;;;;;;;;;;;;;;;11.57;51.81;99451.11;135607;1280;22486;-69
2023/05/05 00:12:41;;;;;;;;;;;;;;;11.54;52.15;99446.55;135589;1280;22519;-70
2023/05/05 00:15:45;;;;;;;;;;;;;;;11.51;51.94;99449.02;135622;1280;22523;-70
2023/05/05 00:18:48;;;;;;;;;;;;;;;11.38;53.21;99448.18;135605;1280;22603;-67
2023/05/05 00:21:51;;;;;;;;;;;;;;;11.08;53.97;99453.95;135551;1280;22536;-68
2023/05/05 00:24:55;;;;;;;;;;;;;;;10.94;54.56;99455.39;135376;1280;22500;-68
2023/05/05 00:27:58;;;;;;;;;;;;;;;10.87;54.45;99455.90;135548;1280;25326;-67
2023/05/05 00:31:02;;;;;;;;;;;;;;;10.83;54.19;99450.30;135641;1280;22518;-68
2023/05/05 00:34:13;;;;;;;;;;;;;;;10.76;54.50;99452.64;135326;1280;22497;-67
2023/05/05 00:37:16;;;;;;;;;;;;;;;10.67;55.08;99453.42;135586;1280;22545;-66
2023/05/05 00:40:19;;;;;;;;;;;;;;;10.66;54.99;99449.99;135627;1280;25211;-67
2023/05/05 00:43:22;;;;;;;;;;;;;;;10.62;55.11;99451.06;135605;1280;22523;-70
2023/05/05 00:46:25;;;;;;;;;;;;;;;10.64;54.94;99449.75;135269;1280;22511;-67
2023/05/05 00:49:30;;;;;;;;;;;;;;;10.59;55.23;99445.95;135374;1280;22500;-69
2023/05/05 00:52:34;;;;;;;;;;;;;;;10.58;55.56;99437.99;135384;1280;22612;-67
2023/05/05 00:55:37;;;;;;;;;;;;;;;10.55;55.55;99435.16;135506;1280;22552;-68
2023/05/05 00:58:39;;;;;;;;;;;;;;;10.36;56.27;99430.86;135569;1280;22528;-70
2023/05/05 01:01:42;;;;;;;;;;;;;;;10.24;56.94;99424.08;135574;1280;22507;-66
2023/05/05 01:04:46;;;;;;;;;;;;;;;10.10;56.84;99422.54;135457;1280;22496;-66
2023/05/05 01:07:49;;;;;;;;;;;;;;;9.98;57.29;99422.59;135608;1280;25256;-66
2023/05/05 01:10:53;;;;;;;;;;;;;;;9.85;57.40;99427.77;135595;1280;22500;-70
2023/05/05 01:13:56;;;;;;;;;;;;;;;9.75;57.96;99427.20;135601;1280;22546;-68
2023/05/05 01:17:01;;;;;;;;;;;;;;;9.70;58.36;99427.40;135602;1280;22520;-66
2023/05/05 01:20:04;;;;;;;;;;;;;;;9.66;58.64;99424.60;135360;1280;25448;-68
2023/05/05 01:23:07;;;;;;;;;;;;;;;9.48;59.28;99427.61;135626;1280;24871;-67
2023/05/05 01:26:11;;;;;;;;;;;;;;;9.36;59.56;99428.85;135600;1280;22513;-65
2023/05/05 01:29:14;;;;;;;;;;;;;;;9.28;60.38;99430.92;135594;1280;22530;-65
2023/05/05 01:32:18;;;;;;;;;;;;;;;9.27;60.47;99432.71;135598;1280;22529;-66
2023/05/05 01:35:21;;;;;;;;;;;;;;;9.27;60.57;99434.67;135603;1280;22530;-69
2023/05/05 01:38:24;;;;;;;;;;;;;;;9.15;60.65;99434.68;135619;1280;22639;-66
2023/05/05 01:41:27;;;;;;;;;;;;;;;9.06;61.20;99437.73;135560;1280;22524;-65
2023/05/05 01:44:33;;;;;;;;;;;;;;;9.01;60.74;99435.98;135489;1280;22503;-69
2023/05/05 01:47:36;;;;;;;;;;;;;;;8.93;61.00;99427.81;135593;1280;22504;-67
2023/05/05 01:50:39;;;;;;;;;;;;;;;8.87;61.08;99422.13;135620;1262;22491;-68
2023/05/05 01:53:41;;;;;;;;;;;;;;;8.87;61.30;99414.13;135575;1280;25294;-68
2023/05/05 01:56:52;;;;;;;;;;;;;;;8.90;61.41;99412.41;135554;1273;24221;-65
2023/05/05 01:59:55;;;;;;;;;;;;;;;8.87;61.62;99409.74;135509;1280;22553;-68
2023/05/05 02:02:59;;;;;;;;;;;;;;;8.86;61.72;99413.13;135593;1280;22505;-68
2023/05/05 02:06:03;;;;;;;;;;;;;;;8.98;61.77;99413.27;135578;1280;22516;-69
2023/05/05 02:09:07;;;;;;;;;;;;;;;8.78;62.81;99415.89;135587;1280;22510;-66
2023/05/05 02:12:09;;;;;;;;;;;;;;;8.64;63.23;99413.55;135561;1280;22514;-66
2023/05/05 02:15:13;;;;;;;;;;;;;;;8.50;63.83;99417.30;135622;1280;22520;-65
2023/05/05 02:18:15;;;;;;;;;;;;;;;8.44;63.68;99415.30;135559;1280;22497;-66
2023/05/05 02:21:18;;;;;;;;;;;;;;;8.37;64.03;99416.59;135594;1280;22507;-66
2023/05/05 02:24:22;;;;;;;;;;;;;;;8.40;64.15;99421.19;135449;1280;22548;-70
2023/05/05 02:27:24;;;;;;;;;;;;;;;8.40;64.18;99420.84;135542;1280;22507;-69
2023/05/05 02:30:27;;;;;;;;;;;;;;;8.44;63.88;99419.98;135332;1280;22516;-68
2023/05/05 02:33:30;;;;;;;;;;;;;;;8.41;63.94;99420.27;135351;1280;22567;-68
2023/05/05 02:36:33;;;;;;;;;;;;;;;8.39;63.46;99422.45;135355;1280;22609;-70
2023/05/05 02:39:36;;;;;;;;;;;;;;;8.28;64.07;99426.02;135607;1280;22507;-66
2023/05/05 02:42:38;;;;;;;;;;;;;;;8.28;64.10;99427.41;135263;1280;22534;-66
2023/05/05 02:45:41;;;;;;;;;;;;;;;8.16;64.61;99427.75;135351;1280;22526;-70
2023/05/05 02:48:44;;;;;;;;;;;;;;;8.07;65.31;99426.02;135577;1280;25463;-66
2023/05/05 02:51:47;;;;;;;;;;;;;;;8.04;65.30;99420.61;135389;1280;22533;-67
2023/05/05 02:54:50;;;;;;;;;;;;;;;8.06;65.08;99419.96;135606;1262;22500;-68
2023/05/05 02:57:53;;;;;;;;;;;;;;;8.06;65.41;99423.82;135624;1266;22519;-69
2023/05/05 03:01:03;;;;;;;;;;;;;;;8.10;65.26;99423.47;135550;1280;25304;-71
2023/05/05 03:04:10;;;;;;;;;;;;;;;8.08;65.26;99411.90;135600;1280;22616;-66
2023/05/05 03:07:14;;;;;;;;;;;;;;;8.06;65.09;99413.70;135512;1280;22498;-66
2023/05/05 03:10:17;;;;;;;;;;;;;;;8.12;65.25;99413.79;135608;1280;22500;-65
2023/05/05 03:13:20;;;;;;;;;;;;;;;8.23;64.58;99413.54;135560;1280;22647;-68
2023/05/05 03:16:24;;;;;;;;;;;;;;;8.15;65.19;99410.91;135601;1280;22507;-70
2023/05/05 03:19:27;;;;;;;;;;;;;;;8.20;65.42;99411.55;135584;1280;22493;-69
2023/05/05 03:22:30;;;;;;;;;;;;;;;8.20;65.45;99405.81;135604;1280;23264;-67
2023/05/05 03:25:33;;;;;;;;;;;;;;;8.25;65.48;99407.52;135603;1280;22538;-68
2023/05/05 03:28:35;;;;;;;;;;;;;;;8.31;65.41;99413.18;135619;1262;22510;-69
2023/05/05 03:31:38;;;;;;;;;;;;;;;8.39;65.13;99409.39;135558;1280;24233;-69
2023/05/05 03:34:44;;;;;;;;;;;;;;;8.40;65.32;99408.27;135599;1280;24269;-69
2023/05/05 03:37:51;;;;;;;;;;;;;;;8.48;65.32;99405.69;135635;1280;22508;-68
2023/05/05 03:40:54;;;;;;;;;;;;;;;8.53;64.99;99402.71;135577;1280;22525;-71
2023/05/05 03:43:56;;;;;;;;;;;;;;;8.56;65.21;99408.15;135613;1280;22501;-67
2023/05/05 03:47:00;;;;;;;;;;;;;;;8.63;65.05;99410.27;135543;1280;22515;-66
2023/05/05 03:50:03;;;;;;;;;;;;;;;8.92;63.92;99415.80;135656;1280;22519;-69
2023/05/05 03:53:06;;;;;;;;;;;;;;;9.05;63.79;99422.07;135607;1278;22525;-68
2023/05/05 03:56:09;;;;;;;;;;;;;;;9.01;64.20;99423.08;135618;1280;22507;-67
2023/05/05 03:59:12;;;;;;;;;;;;;;;9.02;64.47;99421.30;135553;1280;25376;-65
2023/05/05 04:02:15;;;;;;;;;;;;;;;9.10;64.50;99417.64;135331;1280;25403;-65
2023/05/05 04:05:18;;;;;;;;;;;;;;;9.18;64.72;99411.49;135364;1280;22497;-67
2023/05/05 04:08:21;;;;;;;;;;;;;;;9.31;64.70;99408.98;135585;1279;22512;-68
2023/05/05 04:11:28;;;;;;;;;;;;;;;9.42;64.79;99413.89;135618;1280;22512;-68
2023/05/05 04:14:31;;;;;;;;;;;;;;;9.52;64.81;99416.59;135585;1279;22504;-68
2023/05/05 04:17:34;;;;;;;;;;;;;;;9.64;64.61;99417.05;135636;1279;22487;-68
2023/05/05 04:20:37;;;;;;;;;;;;;;;9.74;64.40;99415.90;135613;1279;22583;-68
2023/05/05 04:23:41;;;;;;;;;;;;;;;9.86;64.50;99417.88;135603;1279;22506;-69
2023/05/05 04:26:44;;;;;;;;;;;;;;;9.98;64.73;99416.27;135625;1279;22552;-68
2023/05/05 04:29:47;;;;;;;;;;;;;;;10.13;64.92;99417.10;135608;1279;22516;-67
2023/05/05 04:32:50;;;;;;;;;;;;;;;10.35;64.40;99418.31;135564;1279;23049;-70
2023/05/05 04:35:53;;;;;;;;;;;;;;;10.64;64.01;99419.81;135602;1279;22584;-70
2023/05/05 04:38:57;;;;;;;;;;;;;;;10.88;63.70;99422.81;135599;1279;22616;-69
2023/05/05 04:42:01;;;;;;;;;;;;;;;11.07;63.94;99428.97;135630;1280;22541;-68
2023/05/05 04:45:04;;;;;;;;;;;;;;;11.30;63.98;99437.34;135654;1280;22505;-69
2023/05/05 04:48:08;;;;;;;;;;;;;;;11.57;63.59;99438.34;135483;1280;22546;-66
2023/05/05 04:51:11;;;;;;;;;;;;;;;11.76;63.63;99439.55;135574;1268;22541;-66
2023/05/05 04:54:18;;;;;;;;;;;;;;;11.97;63.70;99442.06;135626;1280;22490;-67
2023/05/05 04:57:21;;;;;;;;;;;;;;;12.23;63.21;99440.77;135333;1280;22520;-65
2023/05/05 05:00:24;;;;;;;;;;;;;;;12.47;62.33;99441.66;135635;1280;22504;-66
2023/05/05 05:03:27;;;;;;;;;;;;;;;12.63;60.86;99444.23;135608;1259;22531;-67
2023/05/05 05:06:31;;;;;;;;;;;;;;;12.90;60.95;99444.75;135617;1262;22508;-66
2023/05/05 05:09:33;;;;;;;;;;;;;;;13.16;60.08;99446.31;135600;1280;22521;-67
2023/05/05 05:12:36;;;;;;;;;;;;;;;13.40;59.71;99446.05;135426;1280;22496;-67
2023/05/05 05:15:39;;;;;;;;;;;;;;;13.57;59.76;99446.25;135601;1280;22523;-66
2023/05/05 05:18:42;;;;;;;;;;;;;;;13.77;59.84;99447.25;135620;1280;22500;-67
2023/05/05 05:21:45;;;;;;;;;;;;;;;13.97;59.05;99447.40;135616;1273;22516;-69
2023/05/05 05:24:48;;;;;;;;;;;;;;;14.14;59.15;99448.55;135595;1266;22518;-67
2023/05/05 05:27:51;;;;;;;;;;;;;;;14.39;58.92;99451.66;135602;1262;22530;-67
2023/05/05 05:30:54;;;;;;;;;;;;;;;14.58;57.99;99454.13;135548;1280;22521;-70
2023/05/05 05:33:57;;;;;;;;;;;;;;;14.76;58.19;99454.52;135631;1280;25415;-66
2023/05/05 05:37:00;;;;;;;;;;;;;;;14.95;57.52;99455.71;135290;1280;22586;-68
2023/05/05 05:40:04;;;;;;;;;;;;;;;15.07;57.51;99455.05;135606;1280;22494;-70
2023/05/05 05:43:07;;;;;;;;;;;;;;;15.19;56.99;99455.23;135603;1272;22511;-67
2023/05/05 05:46:11;;;;;;;;;;;;;;;15.41;57.13;99455.11;135488;1280;22583;-67
2023/05/05 05:49:17;;;;;;;;;;;;;;;15.75;56.84;99449.34;135625;1280;22487;-65
2023/05/05 05:52:22;;;;;;;;;;;;;;;16.06;56.02;99451.73;135618;1280;25454;-64
2023/05/05 05:55:25;;;;;;;;;;;;;;;16.31;55.58;99453.04;135637;1280;22510;-65
2023/05/05 05:58:28;;;;;;;;;;;;;;;16.60;55.23;99449.60;135531;1280;22508;-66
2023/05/05 06:01:32;;;;;;;;;;;;;;;16.78;54.89;99452.69;135594;1280;22540;-66
2023/05/05 06:04:35;;;;;;;;;;;;;;;16.92;54.25;99452.11;135621;1280;22502;-65
2023/05/05 06:07:38;;;;;;;;;;;;;;;16.99;54.09;99453.75;135616;1280;22525;-66
2023/05/05 06:10:42;;;;;;;;;;;;;;;17.11;54.60;99451.88;135561;1280;23304;-67
2023/05/05 06:13:45;;;;;;;;;;;;;;;17.51;54.08;99449.14;135490;1280;22522;-68
2023/05/05 06:16:51;;;;;;;;;;;;;;;18.08;53.61;99447.23;135607;1280;22554;-66
2023/05/05 06:19:54;;;;;;;;;;;;;;;18.44;52.03;99450.77;135633;1280;22504;-66
2023/05/05 06:23:01;;;;;;;;;;;;;;;18.51;51.16;99453.36;135644;1280;22501;-67
2023/05/05 06:26:04;;;;;;;;;;;;;;;18.55;51.31;99453.25;135656;1280;25376;-66
2023/05/05 06:29:08;;;;;;;;;;;;;;;18.70;51.34;99458.13;135613;1280;22521;-68
2023/05/05 06:32:12;;;;;;;;;;;;;;;18.86;50.66;99461.08;135531;1280;22516;-66
2023/05/05 06:35:16;;;;;;;;;;;;;;;18.97;50.29;99460.16;135656;1280;22487;-69
2023/05/05 06:38:19;;;;;;;;;;;;;;;19.28;49.80;99456.61;135624;1280;24209;-70
2023/05/05 06:41:26;;;;;;;;;;;;;;;19.62;49.57;99456.27;135668;1280;22501;-67
2023/05/05 06:44:29;;;;;;;;;;;;;;;19.88;49.28;99451.22;135611;1280;25457;-67
2023/05/05 06:47:33;;;;;;;;;;;;;;;20.06;48.26;99452.88;135543;1280;22530;-70
2023/05/05 06:50:37;;;;;;;;;;;;;;;20.17;47.65;99450.89;135619;1280;22505;-66
2023/05/05 06:53:41;;;;;;;;;;;;;;;20.54;48.27;99451.61;135648;1280;22483;-68
2023/05/05 06:56:44;;;;;;;;;;;;;;;21.04;46.84;99452.30;135631;1280;24401;-70
2023/05/05 06:59:54;;;;;;;;;;;;;;;21.48;46.37;99451.52;135626;1280;24116;-67
2023/05/05 07:02:58;;;;;;;;;;;;;;;21.74;45.28;99445.81;135654;1280;22496;-66
2023/05/05 07:06:00;;;;;;;;;;;;;;;22.01;44.57;99445.63;135622;1280;22547;-68
2023/05/05 07:09:03;;;;;;;;;;;;;;;22.06;44.51;99447.12;135601;1280;22508;-69
2023/05/05 07:12:06;;;;;;;;;;;;;;;22.03;43.78;99444.98;135630;1273;24241;-72
2023/05/05 07:15:09;;;;;;;;;;;;;;;22.21;43.20;99445.80;135558;1264;22509;-68
2023/05/05 07:18:13;;;;;;;;;;;;;;;22.57;42.82;99448.64;135630;1280;22683;-67
2023/05/05 07:21:19;;;;;;;;;;;;;;;22.76;42.02;99445.96;135485;1280;22517;-69
2023/05/05 07:24:22;;;;;;;;;;;;;;;22.87;42.09;99439.04;135583;1280;22548;-68
2023/05/05 07:27:26;;;;;;;;;;;;;;;23.13;40.90;99439.07;135602;1280;24084;-68
2023/05/05 07:30:32;;;;;;;;;;;;;;;23.42;40.60;99441.22;135573;1280;22501;-67
2023/05/05 07:33:35;;;;;;;;;;;;;;;23.59;40.04;99442.45;135646;1281;22530;-68
2023/05/05 07:36:38;;;;;;;;;;;;;;;23.79;39.25;99436.60;135596;1273;24335;-70
2023/05/05 07:39:41;;;;;;;;;;;;;;;23.82;38.72;99443.59;135451;1281;23016;-68
2023/05/05 07:42:46;;;;;;;;;;;;;;;24.09;38.29;99438.39;135509;1280;22519;-71
2023/05/05 07:45:49;;;;;;;;;;;;;;;24.16;37.69;99437.09;135580;1280;22560;-69
2023/05/05 07:48:52;;;;;;;;;;;;;;;24.31;37.64;99442.05;135450;1263;22541;-64
2023/05/05 07:51:55;;;;;;;;;;;;;;;24.49;36.65;99434.95;135585;1271;22500;-70
2023/05/05 07:54:58;;;;;;;;;;;;;;;24.63;36.60;99436.29;135631;1280;25438;-66
2023/05/05 07:58:02;;;;;;;;;;;;;;;24.70;35.98;99436.63;135617;1280;22638;-66
2023/05/05 08:01:09;;;;;;;;;;;;;;;24.86;35.42;99433.82;135489;1280;22536;-68
2023/05/05 08:04:12;;;;;;;;;;;;;;;24.94;35.24;99439.05;135615;1279;22535;-65
2023/05/05 08:07:15;;;;;;;;;;;;;;;25.13;35.09;99436.64;135586;1279;22503;-70
2023/05/05 08:10:20;;;;;;;;;;;;;;;25.32;34.22;99432.08;135594;1279;22519;-65
2023/05/05 08:13:24;;;;;;;;;;;;;;;25.19;31.66;99432.11;135626;1279;22507;-70
2023/05/05 08:16:27;;;;;;;;;;;;;;;24.96;32.20;99433.36;135642;1279;22533;-65
2023/05/05 08:19:31;;;;;;;;;;;;;;;24.99;33.17;99441.70;135532;1279;22582;-67
2023/05/05 08:22:34;;;;;;;;;;;;;;;25.21;33.07;99437.58;135492;1279;22544;-66
2023/05/05 08:25:36;;;;;;;;;;;;;;;25.48;33.48;99438.65;135605;1279;22521;-66
2023/05/05 08:28:43;;;;;;;;;;;;;;;25.59;33.11;99438.14;135625;1264;22517;-69
2023/05/05 08:31:46;;;;;;;;;;;;;;;25.71;32.30;99438.70;135448;1279;22525;-65
2023/05/05 08:34:49;;;;;;;;;;;;;;;25.83;31.80;99435.08;135303;1279;25258;-64
2023/05/05 08:37:52;;;;;;;;;;;;;;;25.88;31.11;99433.16;135549;1279;22532;-68
2023/05/05 08:40:55;;;;;;;;;;;;;;;25.95;31.74;99435.64;135508;1279;22543;-71
2023/05/05 08:43:58;;;;;;;;;;;;;;;26.06;30.81;99433.87;135608;1279;22509;-66
2023/05/05 08:47:01;;;;;;;;;;;;;;;26.12;31.08;99437.05;135563;1279;22511;-69
2023/05/05 08:50:06;;;;;;;;;;;;;;;26.33;31.24;99440.27;135348;1263;22593;-71
2023/05/05 08:53:10;;;;;;;;;;;;;;;26.42;30.76;99434.33;135437;1264;24208;-66
2023/05/05 08:56:20;;;;;;;;;;;;;;;26.41;30.47;99430.88;135602;1279;22502;-66
2023/05/05 08:59:24;;;;;;;;;;;;;;;26.36;30.36;99431.66;135626;1279;22643;-68
2023/05/05 09:02:28;;;;;;;;;;;;;;;26.34;31.13;99424.92;135442;1279;22541;-65
2023/05/05 09:05:32;;;;;;;;;;;;;;;26.55;30.69;99422.79;135270;1279;25834;-67
2023/05/05 09:08:34;;;;;;;;;;;;;;;26.74;30.92;99425.17;135534;1280;22543;-67
2023/05/05 09:11:38;;;;;;;;;;;;;;;26.85;30.62;99423.39;135575;1280;22523;-69
2023/05/05 09:14:40;;;;;;;;;;;;;;;26.93;30.54;99425.83;135556;1280;22515;-66
2023/05/05 09:17:43;;;;;;;;;;;;;;;26.81;30.46;99428.44;135381;1279;22539;-65
2023/05/05 09:20:45;;;;;;;;;;;;;;;26.50;29.21;99430.90;135455;1279;25415;-66
2023/05/05 09:23:48;;;;;;;;;;;;;;;26.51;29.71;99433.08;135568;1280;22512;-69
2023/05/05 09:26:54;;;;;;;;;;;;;;;26.69;29.02;99430.02;135593;1280;22525;-67
2023/05/05 09:29:57;;;;;;;;;;;;;;;26.82;28.37;99430.17;135321;1280;22514;-71
2023/05/05 09:33:01;;;;;;;;;;;;;;;26.79;28.33;99426.75;135461;1280;24409;-66
2023/05/05 09:36:03;;;;;;;;;;;;;;;26.92;27.90;99427.80;135016;1280;22536;-66
2023/05/05 09:39:06;;;;;;;;;;;;;;;27.00;28.13;99427.99;135330;1264;22519;-66
2023/05/05 09:42:09;;;;;;;;;;;;;;;27.20;27.98;99427.56;135430;1280;24221;-65
2023/05/05 09:45:13;;;;;;;;;;;;;;;27.44;27.70;99419.33;135399;1280;22523;-65
2023/05/05 09:48:15;;;;;;;;;;;;;;;27.39;27.34;99417.59;135299;1263;22525;-68
2023/05/05 09:51:23;;;;;;;;;;;;;;;27.09;26.82;99421.70;135575;1280;22518;-68
2023/05/05 09:54:26;;;;;;;;;;;;;;;26.53;26.32;99422.77;135552;1280;22509;-68
2023/05/05 09:57:30;;;;;;;;;;;;;;;26.29;26.79;99422.58;135572;1280;22522;-67
2023/05/05 10:00:34;;;;;;;;;;;;;;;26.52;27.59;99422.34;135603;1280;22515;-70
2023/05/05 10:03:37;;;;;;;;;;;;;;;26.87;27.07;99417.01;135588;1280;22524;-70
2023/05/05 10:06:41;;;;;;;;;;;;;;;27.13;26.12;99413.48;135484;1280;22526;-67
2023/05/05 10:09:44;;;;;;;;;;;;;;;27.44;26.98;99414.42;135430;1280;22511;-66
2023/05/05 10:12:48;;;;;;;;;;;;;;;27.53;26.56;99417.60;135587;1280;22500;-67
2023/05/05 10:15:50;;;;;;;;;;;;;;;27.72;26.17;99414.04;135575;1280;22716;-66
2023/05/05 10:18:54;;;;;;;;;;;;;;;27.95;26.51;99409.10;135589;1280;22508;-67
2023/05/05 10:21:57;;;;;;;;;;;;;;;27.96;26.20;99405.67;135561;1280;22505;-68
2023/05/05 10:25:01;;;;;;;;;;;;;;;27.55;25.37;99401.92;135576;1280;22533;-67
2023/05/05 10:28:04;;;;;;;;;;;;;;;27.15;26.26;99406.65;135573;1280;22514;-69
2023/05/05 10:31:08;;;;;;;;;;;;;;;27.36;26.85;99404.24;135484;1280;22498;-69
2023/05/05 10:34:14;;;;;;;;;;;;;;;27.33;25.18;99402.50;135589;1280;22515;-66
2023/05/05 10:37:16;;;;;;;;;;;;;;;27.51;26.64;99403.67;135558;1277;22511;-68
2023/05/05 10:40:19;;;;;;;;;;;;;;;27.66;25.38;99396.61;135511;1280;22558;-67
2023/05/05 10:43:21;;;;;;;;;;;;;;;27.81;26.35;99391.36;135348;1280;22521;-67
2023/05/05 10:46:24;;;;;;;;;;;;;;;28.03;26.80;99387.55;135585;1280;22514;-68
2023/05/05 10:49:28;;;;;;;;;;;;;;;28.33;26.51;99381.49;135356;1280;22510;-67
2023/05/05 10:52:31;;;;;;;;;;;;;;;28.29;25.64;99383.63;135581;1280;22504;-67
2023/05/05 10:55:35;;;;;;;;;;;;;;;27.67;25.34;99387.73;135551;1280;22527;-70
2023/05/05 10:58:38;;;;;;;;;;;;;;;26.56;25.62;99382.62;135593;1280;22525;-67
2023/05/05 11:01:41;;;;;;;;;;;;;;;25.93;26.98;99377.61;135577;1280;22501;-69
2023/05/05 11:04:43;;;;;;;;;;;;;;;26.29;28.06;99379.95;135565;1258;22514;-65
2023/05/05 11:07:46;;;;;;;;;;;;;;;26.29;27.09;99380.42;135429;1280;22574;-65
2023/05/05 11:10:49;;;;;;;;;;;;;;;25.83;27.34;99378.83;135897;1280;22563;-63
2023/05/05 11:13:51;;;;;;;;;;;;;;;25.41;27.14;99374.33;135379;1264;22555;-64
2023/05/05 11:16:55;;;;;;;;;;;;;;;25.81;27.78;99369.56;135499;1280;22508;-69
2023/05/05 11:19:57;;;;;;;;;;;;;;;25.99;26.66;99366.52;135229;1264;22642;-68
2023/05/05 11:23:00;;;;;;;;;;;;;;;26.24;26.86;99359.66;135365;1280;22535;-69
2023/05/05 11:26:03;;;;;;;;;;;;;;;26.89;27.72;99361.68;135370;1280;22609;-69
2023/05/05 11:29:06;;;;;;;;;;;;;;;26.74;27.10;99364.56;135557;1280;22540;-70
2023/05/05 11:32:09;;;;;;;;;;;;;;;26.17;26.54;99358.79;135550;1280;22516;-67
2023/05/05 11:35:13;;;;;;;;;;;;;;;25.67;27.77;99360.39;135501;1280;22539;-67
2023/05/05 11:38:15;;;;;;;;;;;;;;;25.36;28.02;99361.66;135239;1280;22538;-66
2023/05/05 11:41:20;;;;;;;;;;;;;;;25.18;28.32;99359.14;135157;1280;24219;-67
2023/05/05 11:44:26;;;;;;;;;;;;;;;25.40;28.06;99352.89;135434;1280;22514;-65
2023/05/05 11:47:30;;;;;;;;;;;;;;;26.20;28.01;99351.36;135551;1280;22500;-67
2023/05/05 11:50:32;;;;;;;;;;;;;;;27.04;27.76;99353.92;135568;1280;22744;-67
2023/05/05 11:53:35;;;;;;;;;;;;;;;27.80;27.20;99350.36;135522;1280;22536;-68
2023/05/05 11:56:38;;;;;;;;;;;;;;;28.44;26.69;99351.48;135483;1262;22509;-71
2023/05/05 11:59:40;;;;;;;;;;;;;;;28.40;24.98;99347.55;135546;1280;22528;-66
2023/05/05 12:02:44;;;;;;;;;;;;;;;28.09;25.28;99344.05;135540;1280;22616;-68
2023/05/05 12:05:48;;;;;;;;;;;;;;;27.94;27.15;99344.61;131304;1280;5388133;-69
2023/05/05 12:08:51;;;;;;;;;;;;;;;28.45;26.58;99339.25;135559;1280;22600;-66
2023/05/05 12:11:54;;;;;;;;;;;;;;;28.93;25.52;99332.30;135574;1280;22518;-65
2023/05/05 12:14:58;;;;;;;;;;;;;;;29.10;24.96;99328.66;135534;1280;25607;-66
2023/05/05 12:18:01;;;;;;;;;;;;;;;28.99;25.43;99332.85;135579;1280;22504;-66
2023/05/05 12:21:04;;;;;;;;;;;;;;;28.92;24.00;99328.63;135537;1280;22518;-66
2023/05/05 12:24:06;;;;;;;;;;;;;;;28.73;24.65;99325.84;135497;1280;22514;-68
2023/05/05 12:27:09;;;;;;;;;;;;;;;28.78;24.97;99323.63;135515;1280;22559;-68
2023/05/05 12:30:12;;;;;;;;;;;;;;;28.78;23.92;99320.66;135529;1279;22530;-66
2023/05/05 12:33:15;;;;;;;;;;;;;;;28.01;23.38;99316.06;135491;1279;22504;-65
2023/05/05 12:36:19;;;;;;;;;;;;;;;27.74;24.37;99313.61;135556;1279;25213;-66
2023/05/05 12:39:22;;;;;;;;;;;;;;;28.25;24.82;99315.86;135365;1279;22525;-65
2023/05/05 12:42:25;;;;;;;;;;;;;;;29.03;25.22;99310.69;135495;1279;22534;-66
2023/05/05 12:45:28;;;;;;;;;;;;;;;29.45;24.68;99306.44;135536;1279;22536;-68
2023/05/05 12:48:31;;;;;;;;;;;;;;;29.91;24.40;99309.99;135551;1279;22504;-65
2023/05/05 12:51:37;;;;;;;;;;;;;;;30.22;23.66;99307.41;135518;1279;22517;-69
2023/05/05 12:54:40;;;;;;;;;;;;;;;29.67;22.44;99305.23;135473;1279;22514;-67
2023/05/05 12:57:43;;;;;;;;;;;;;;;28.34;23.51;99307.12;135504;1279;22533;-67
2023/05/05 13:00:46;;;;;;;;;;;;;;;28.47;24.94;99306.54;135462;1279;25459;-67
2023/05/05 13:03:49;;;;;;;;;;;;;;;28.92;24.77;99299.77;135350;1279;22513;-66
2023/05/05 13:06:52;;;;;;;;;;;;;;;29.43;24.69;99288.06;135513;1270;22501;-67
2023/05/05 13:09:55;;;;;;;;;;;;;;;30.12;24.57;99288.98;135547;1279;25382;-66
2023/05/05 13:13:05;;;;;;;;;;;;;;;30.66;23.84;99290.89;135508;1280;22514;-65
2023/05/05 13:16:09;;;;;;;;;;;;;;;31.07;24.10;99286.20;135493;1280;22518;-65
2023/05/05 13:19:11;;;;;;;;;;;;;;;31.21;23.08;99286.59;135515;1258;22635;-65
2023/05/05 13:22:14;;;;;;;;;;;;;;;30.32;22.58;99287.54;135464;1262;23231;-66
2023/05/05 13:25:23;;;;;;;;;;;;;;;29.53;23.00;99285.16;135401;1280;22519;-67
2023/05/05 13:32:10;;;;;;;;;;;;;;;30.04;23.68;99281.38;135516;1270;22524;-66
2023/05/05 13:35:13;;;;;;;;;;;;;;;30.11;23.41;99281.46;135494;1280;22592;-66
2023/05/05 13:38:16;;;;;;;;;;;;;;;30.23;22.72;99278.86;135505;1280;22511;-68
2023/05/05 13:41:19;;;;;;;;;;;;;;;30.21;22.19;99276.41;135337;1280;22974;-67
2023/05/05 13:44:29;;;;;;;;;;;;;;;30.30;21.90;99273.81;135296;1280;22526;-66
2023/05/05 13:47:32;;;;;;;;;;;;;;;30.41;21.38;99270.38;135279;1280;22520;-64
2023/05/05 13:50:34;;;;;;;;;;;;;;;30.51;21.58;99269.30;135275;1280;22554;-65
2023/05/05 13:53:40;;;;;;;;;;;;;;;30.39;21.07;99268.72;135306;1280;22540;-65
2023/05/05 13:56:43;;;;;;;;;;;;;;;30.58;21.70;99259.28;135290;1280;22521;-66
2023/05/05 13:59:46;;;;;;;;;;;;;;;30.61;20.77;99257.73;135471;1264;22511;-67
2023/05/05 14:02:50;;;;;;;;;;;;;;;30.46;20.78;99247.70;135489;1262;22515;-69
2023/05/05 14:05:52;;;;;;;;;;;;;;;30.26;19.96;99250.60;135455;1280;22545;-65
2023/05/05 14:08:55;;;;;;;;;;;;;;;29.48;20.85;99246.91;135502;1280;24298;-66
2023/05/05 14:11:57;;;;;;;;;;;;;;;29.16;21.65;99240.15;135549;1280;22518;-68
2023/05/05 14:15:00;;;;;;;;;;;;;;;29.63;21.75;99239.36;135494;1280;22515;-70
2023/05/05 14:18:03;;;;;;;;;;;;;;;30.07;22.51;99243.73;135324;1280;22519;-65
2023/05/05 14:21:10;;;;;;;;;;;;;;;30.44;22.18;99240.53;135492;1280;22504;-66
2023/05/05 14:24:12;;;;;;;;;;;;;;;30.62;22.54;99237.52;135497;1280;22516;-67
2023/05/05 14:27:15;;;;;;;;;;;;;;;30.89;22.16;99236.53;135416;1280;22510;-67
2023/05/05 14:30:18;;;;;;;;;;;;;;;31.14;22.03;99238.37;135463;1280;22592;-67
2023/05/05 14:33:21;;;;;;;;;;;;;;;31.56;22.07;99229.77;135514;1280;25344;-66
2023/05/05 14:36:25;;;;;;;;;;;;;;;31.57;21.91;99226.37;135432;1280;22504;-65
2023/05/05 14:39:29;;;;;;;;;;;;;;;31.46;21.76;99223.02;135575;1280;22501;-70
2023/05/05 14:42:32;;;;;;;;;;;;;;;31.39;21.05;99224.95;135374;1264;22610;-64
2023/05/05 14:45:35;;;;;;;;;;;;;;;31.39;21.61;99229.88;135540;1262;22511;-69
2023/05/05 14:48:38;;;;;;;;;;;;;;;31.63;21.43;99229.34;135528;1280;22523;-68
2023/05/05 14:51:41;;;;;;;;;;;;;;;31.20;20.60;99228.21;135520;1280;22514;-67
2023/05/05 14:54:45;;;;;;;;;;;;;;;30.89;20.38;99229.83;135327;1280;22515;-68
2023/05/05 14:57:47;;;;;;;;;;;;;;;30.50;21.61;99228.90;135541;1280;22526;-72
2023/05/05 15:00:51;;;;;;;;;;;;;;;30.30;22.01;99232.07;135400;1280;22522;-70
2023/05/05 15:03:54;;;;;;;;;;;;;;;30.08;22.56;99232.20;135535;1280;24239;-67
2023/05/05 15:06:57;;;;;;;;;;;;;;;29.87;21.96;99238.26;135561;1280;22503;-67
2023/05/05 15:10:00;;;;;;;;;;;;;;;30.46;22.49;99236.34;135510;1280;23906;-69
2023/05/05 15:13:02;;;;;;;;;;;;;;;31.91;21.40;99230.33;135532;1280;22525;-67
2023/05/05 15:16:05;;;;;;;;;;;;;;;32.13;19.54;99226.59;135493;1280;22512;-68
2023/05/05 15:19:07;;;;;;;;;;;;;;;31.26;19.67;99227.37;135512;1280;22506;-65
2023/05/05 15:22:09;;;;;;;;;;;;;;;30.07;20.28;99233.05;135336;1280;22582;-71
2023/05/05 15:25:14;;;;;;;;;;;;;;;29.48;21.01;99230.63;135541;1280;22583;-64
2023/05/05 15:28:17;;;;;;;;;;;;;;;29.59;22.67;99230.66;135409;1280;22507;-68
2023/05/05 15:31:24;;;;;;;;;;;;;;;29.41;21.45;99233.73;135543;1280;22517;-67
2023/05/05 15:34:27;;;;;;;;;;;;;;;29.20;21.42;99230.45;135547;1280;22617;-69
2023/05/05 15:37:30;;;;;;;;;;;;;;;29.08;22.17;99227.66;135329;1280;22544;-67
2023/05/05 15:40:33;;;;;;;;;;;;;;;28.59;22.99;99234.91;135483;1280;22534;-68
2023/05/05 15:43:40;;;;;;;;;;;;;;;27.63;23.54;99234.65;135563;1280;22516;-71
2023/05/05 15:46:43;;;;;;;;;;;;;;;26.94;24.47;99233.55;135342;1280;22570;-65